createdAt,value
2017-11-04T00:00:37.915Z,100753.83
2017-11-04T00:03:05.534Z,100751.28
2017-11-04T00:05:33.187Z,100744.95
2017-11-04T00:08:00.847Z,100742.77
2017-11-04T00:10:28.506Z,100742.19
2017-11-04T00:12:56.142Z,100734.88
2017-11-04T00:15:23.790Z,100731.97
2017-11-04T00:17:51.511Z,100727.22
2017-11-04T00:20:19.158Z,100727.27
2017-11-04T00:22:46.805Z,100719.60
2017-11-04T00:25:14.453Z,100714.33
2017-11-04T00:27:42.063Z,100713.92
2017-11-04T00:30:09.702Z,100709.62
2017-11-04T00:32:37.328Z,100714.78
2017-11-04T00:35:04.970Z,100705.45
2017-11-04T00:37:32.593Z,100711.87
2017-11-04T00:40:00.253Z,100710.31
2017-11-04T00:42:27.874Z,100712.77
2017-11-04T00:44:55.550Z,100708.09
2017-11-04T00:47:23.174Z,100701.17
2017-11-04T00:49:50.850Z,100701.07
2017-11-04T00:52:18.477Z,100698.55
2017-11-04T00:54:46.152Z,100691.74
2017-11-04T00:57:13.770Z,100684.91
2017-11-04T00:59:41.446Z,100688.48
2017-11-04T01:02:09.204Z,100686.45
2017-11-04T01:04:36.862Z,100687.78
2017-11-04T01:07:04.470Z,100689.66
2017-11-04T01:09:32.841Z,100688.14
2017-11-04T01:12:00.505Z,100684.58
2017-11-04T01:14:28.125Z,100684.16
2017-11-04T01:16:55.763Z,100674.39
2017-11-04T01:19:23.369Z,100686.30
2017-11-04T01:21:51.035Z,100672.36
2017-11-04T01:24:18.633Z,100671.03
2017-11-04T01:26:46.296Z,100668.45
2017-11-04T01:29:13.934Z,100673.28
2017-11-04T01:31:41.601Z,100667.94
2017-11-04T01:34:11.094Z,100661.11
2017-11-04T01:36:38.745Z,100654.91
2017-11-04T01:39:06.368Z,100647.88
2017-11-04T01:41:34.034Z,100639.83
2017-11-04T01:44:01.645Z,100637.01
2017-11-04T01:46:29.254Z,100633.64
2017-11-04T01:48:56.910Z,100634.18
2017-11-04T01:51:24.516Z,100630.81
2017-11-04T01:53:51.592Z,100628.03
2017-11-04T01:56:19.188Z,100630.88
2017-11-04T01:58:46.846Z,100624.20
2017-11-04T02:01:14.446Z,100620.25
2017-11-04T02:03:42.091Z,100620.69
2017-11-04T02:06:09.721Z,100621.17
2017-11-04T02:08:37.389Z,100614.62
2017-11-04T02:11:04.997Z,100609.28
2017-11-04T02:13:32.593Z,100612.39
2017-11-04T02:16:00.226Z,100608.77
2017-11-04T02:18:27.826Z,100603.14
2017-11-04T02:20:55.483Z,100596.57
2017-11-04T02:23:23.105Z,100582.16
2017-11-04T02:25:50.760Z,100581.75
2017-11-04T02:28:18.376Z,100576.95
2017-11-04T02:30:46.001Z,100569.60
2017-11-04T02:33:13.598Z,100577.41
2017-11-04T02:35:41.274Z,100565.23
2017-11-04T02:38:08.895Z,100570.78
2017-11-04T02:40:36.512Z,100564.67
2017-11-04T02:43:04.157Z,100562.44
2017-11-04T02:45:31.771Z,100564.38
2017-11-04T02:47:59.421Z,100560.82
2017-11-04T02:50:27.094Z,100565.49
2017-11-04T02:52:54.754Z,100556.45
2017-11-04T02:55:22.370Z,100558.73
2017-11-04T02:57:50.038Z,100557.41
2017-11-04T03:00:17.743Z,100555.70
2017-11-04T03:02:45.350Z,100551.31
2017-11-04T03:05:13.011Z,100550.22
2017-11-04T03:07:40.629Z,100548.80
2017-11-04T03:10:08.279Z,100552.94
2017-11-04T03:12:35.893Z,100554.30
2017-11-04T03:15:03.606Z,100552.03
2017-11-04T03:17:31.213Z,100548.52
2017-11-04T03:19:58.905Z,100542.00
2017-11-04T03:22:26.497Z,100547.31
2017-11-04T03:24:54.086Z,100541.95
2017-11-04T03:27:21.728Z,100541.07
2017-11-04T03:29:49.335Z,100544.16
2017-11-04T03:32:16.979Z,100537.30
2017-11-04T03:34:44.570Z,100542.77
2017-11-04T03:37:12.217Z,100543.00
2017-11-04T03:39:39.833Z,100539.95
2017-11-04T03:42:07.489Z,100532.45
2017-11-04T03:44:35.106Z,100533.78
2017-11-04T03:47:02.794Z,100528.34
2017-11-04T03:49:30.398Z,100527.49
2017-11-04T03:51:58.006Z,100529.63
2017-11-04T03:54:25.637Z,100532.67
2017-11-04T03:56:53.249Z,100535.34
2017-11-04T03:59:21.038Z,100530.39
2017-11-04T04:01:48.641Z,100534.30
2017-11-04T04:04:16.283Z,100534.19
2017-11-04T04:06:43.887Z,100527.23
2017-11-04T04:09:11.544Z,100524.44
2017-11-04T04:11:39.142Z,100525.77
2017-11-04T04:14:06.808Z,100517.76
2017-11-04T04:16:34.433Z,100517.97
2017-11-04T04:19:02.085Z,100510.26
2017-11-04T04:21:29.741Z,100501.19
2017-11-04T04:23:57.349Z,100499.61
2017-11-04T04:26:25.075Z,100496.70
2017-11-04T04:28:52.676Z,100493.56
2017-11-04T04:31:20.318Z,100484.52
2017-11-04T04:33:47.925Z,100484.00
2017-11-04T04:36:15.574Z,100486.59
2017-11-04T04:38:43.198Z,100471.45
2017-11-04T04:41:10.855Z,100475.38
2017-11-04T04:43:38.453Z,100474.50
2017-11-04T04:46:06.104Z,100477.53
2017-11-04T04:48:33.710Z,100470.98
2017-11-04T04:51:01.501Z,100470.55
2017-11-04T04:53:29.121Z,100474.29
2017-11-04T04:55:56.802Z,100477.82
2017-11-04T04:58:24.442Z,100467.70
2017-11-04T05:00:52.053Z,100460.96
2017-11-04T05:03:19.701Z,100465.83
2017-11-04T05:05:47.315Z,100465.89
2017-11-04T05:08:14.974Z,100449.51
2017-11-04T05:10:42.592Z,100452.52
2017-11-04T05:13:10.244Z,100449.61
2017-11-04T05:15:37.837Z,100443.70
2017-11-04T05:18:05.486Z,100439.55
2017-11-04T05:20:33.097Z,100433.30
2017-11-04T05:23:00.870Z,100433.97
2017-11-04T05:25:28.485Z,100433.81
2017-11-04T05:27:56.102Z,100427.47
2017-11-04T05:30:23.753Z,100424.94
2017-11-04T05:32:51.350Z,100411.62
2017-11-04T05:35:18.998Z,100417.42
2017-11-04T05:37:46.602Z,100413.01
2017-11-04T05:40:14.239Z,100411.47
2017-11-04T05:42:41.878Z,100403.87
2017-11-04T05:45:09.518Z,100415.62
2017-11-04T05:47:37.165Z,100400.98
2017-11-04T05:50:04.846Z,100398.42
2017-11-04T05:52:32.493Z,100402.81
2017-11-04T05:55:00.104Z,100397.91
2017-11-04T05:57:27.812Z,100394.45
2017-11-04T05:59:55.377Z,100395.70
2017-11-04T06:02:23.018Z,100401.85
2017-11-04T06:04:50.629Z,100397.03
2017-11-04T06:07:18.250Z,100397.30
2017-11-04T06:09:45.890Z,100397.67
2017-11-04T06:12:13.535Z,100399.19
2017-11-04T06:14:41.182Z,100403.29
2017-11-04T06:17:08.789Z,100399.98
2017-11-04T06:19:36.429Z,100396.23
2017-11-04T06:22:04.067Z,100395.20
2017-11-04T06:24:31.730Z,100392.30
2017-11-04T06:26:59.332Z,100390.83
2017-11-04T06:29:26.973Z,100392.19
2017-11-04T06:31:54.655Z,100400.90
2017-11-04T06:34:22.313Z,100409.62
2017-11-04T06:36:49.942Z,100407.94
2017-11-04T06:39:17.634Z,100411.31
2017-11-04T06:41:45.303Z,100403.19
2017-11-04T06:44:12.944Z,100401.19
2017-11-04T06:46:40.553Z,100401.77
2017-11-04T06:49:08.192Z,100403.89
2017-11-04T06:51:35.817Z,100402.70
2017-11-04T06:54:03.461Z,100409.78
2017-11-04T06:56:31.078Z,100411.52
2017-11-04T06:58:58.714Z,100417.40
2017-11-04T07:01:26.333Z,100402.73
2017-11-04T07:03:53.979Z,100410.34
2017-11-04T07:06:21.606Z,100407.00
2017-11-04T07:08:49.294Z,100406.87
2017-11-04T07:11:16.895Z,100403.14
2017-11-04T07:13:44.690Z,100401.14
2017-11-04T07:16:12.294Z,100394.84
2017-11-04T07:18:39.933Z,100396.84
2017-11-04T07:21:07.553Z,100396.56
2017-11-04T07:23:35.219Z,100388.53
2017-11-04T07:26:02.826Z,100386.00
2017-11-04T07:28:30.517Z,100386.80
2017-11-04T07:30:58.124Z,100387.55
2017-11-04T07:33:25.809Z,100383.94
2017-11-04T07:35:53.425Z,100387.80
2017-11-04T07:38:21.068Z,100378.97
2017-11-04T07:40:48.709Z,100375.38
2017-11-04T07:43:16.352Z,100374.44
2017-11-04T07:45:43.971Z,100379.89
2017-11-04T07:48:11.611Z,100378.31
2017-11-04T07:50:39.214Z,100370.56
2017-11-04T07:53:06.862Z,100370.97
2017-11-04T07:55:34.470Z,100376.30
2017-11-04T07:58:02.125Z,100376.19
2017-11-04T08:00:29.734Z,100368.84
2017-11-04T08:02:57.407Z,100371.90
2017-11-04T08:05:25.147Z,100367.53
2017-11-04T08:07:52.805Z,100367.57
2017-11-04T08:10:20.417Z,100365.58
2017-11-04T08:12:48.064Z,100373.00
2017-11-04T08:15:15.688Z,100369.96
2017-11-04T08:17:43.319Z,100365.19
2017-11-04T08:20:10.971Z,100362.13
2017-11-04T08:22:38.634Z,100357.20
2017-11-04T08:25:06.246Z,100355.80
2017-11-04T08:27:33.914Z,100343.41
2017-11-04T08:30:01.534Z,100355.85
2017-11-04T08:32:29.196Z,100348.13
2017-11-04T08:34:56.845Z,100345.59
2017-11-04T08:37:27.395Z,100340.77
2017-11-04T08:39:55.010Z,100349.09
2017-11-04T08:42:22.664Z,100336.39
2017-11-04T08:44:50.377Z,100327.14
2017-11-04T08:47:18.055Z,100324.89
2017-11-04T08:49:45.789Z,100318.87
2017-11-04T08:52:13.400Z,100319.16
2017-11-04T08:54:41.036Z,100328.91
2017-11-04T08:57:08.682Z,100333.72
2017-11-04T08:59:36.301Z,100331.70
2017-11-04T09:02:03.963Z,100332.77
2017-11-04T09:04:31.610Z,100318.47
2017-11-04T09:06:59.261Z,100333.30
2017-11-04T09:09:26.902Z,100329.11
2017-11-04T09:11:54.569Z,100333.77
2017-11-04T09:14:22.206Z,100332.44
2017-11-04T09:16:49.845Z,100327.01
2017-11-04T09:19:17.464Z,100328.42
2017-11-04T09:21:45.133Z,100325.92
2017-11-04T09:24:12.803Z,100313.21
2017-11-04T09:26:40.431Z,100305.81
2017-11-04T09:29:08.094Z,100297.98
2017-11-04T09:31:35.725Z,100299.20
2017-11-04T09:34:03.397Z,100293.30
2017-11-04T09:36:31.017Z,100307.77
2017-11-04T09:38:58.675Z,100296.83
2017-11-04T09:41:26.304Z,100294.98
2017-11-04T09:43:53.964Z,100292.45
2017-11-04T09:46:21.581Z,100281.73
2017-11-04T09:48:49.221Z,100284.12
2017-11-04T09:51:16.854Z,100286.30
2017-11-04T09:53:44.508Z,100289.84
2017-11-04T09:56:12.186Z,100287.38
2017-11-04T09:58:39.853Z,100283.42
2017-11-04T10:01:07.473Z,100295.32
2017-11-04T10:03:35.166Z,100310.06
2017-11-04T10:06:02.802Z,100301.48
2017-11-04T10:08:32.207Z,100305.17
2017-11-04T10:10:59.829Z,100306.41
2017-11-04T10:13:27.478Z,100305.73
2017-11-04T10:15:55.091Z,100294.72
2017-11-04T10:18:22.761Z,100290.09
2017-11-04T10:20:50.467Z,100294.60
2017-11-04T10:23:18.121Z,100297.36
2017-11-04T10:25:45.735Z,100291.39
2017-11-04T10:28:13.478Z,100282.42
2017-11-04T10:30:41.090Z,100281.66
2017-11-04T10:33:08.851Z,100273.46
2017-11-04T10:35:36.465Z,100264.22
2017-11-04T10:38:04.171Z,100257.36
2017-11-04T10:40:31.798Z,100249.45
2017-11-04T10:42:59.491Z,100251.75
2017-11-04T10:45:27.102Z,100243.05
2017-11-04T10:47:54.722Z,100245.39
2017-11-04T10:50:22.398Z,100246.23
2017-11-04T10:52:50.023Z,100240.69
2017-11-04T10:55:17.681Z,100224.14
2017-11-04T10:57:45.341Z,100217.86
2017-11-04T11:00:13.028Z,100214.07
2017-11-04T11:02:40.667Z,100207.40
2017-11-04T11:05:08.326Z,100210.44
2017-11-04T11:07:35.954Z,100204.16
2017-11-04T11:10:03.589Z,100197.55
2017-11-04T11:12:31.235Z,100204.97
2017-11-04T11:14:58.879Z,100198.28
2017-11-04T11:17:26.486Z,100194.67
2017-11-04T11:19:54.135Z,100192.06
2017-11-04T11:22:21.774Z,100195.92
2017-11-04T11:24:49.421Z,100189.41
2017-11-04T11:27:17.036Z,100196.13
2017-11-04T11:29:44.765Z,100189.08
2017-11-04T11:32:12.401Z,100182.89
2017-11-04T11:34:40.053Z,100191.06
2017-11-04T11:37:07.693Z,100168.50
2017-11-04T11:39:35.358Z,100178.03
2017-11-04T11:42:02.990Z,100179.20
2017-11-04T11:44:30.653Z,100190.93
2017-11-04T11:46:58.270Z,100184.48
2017-11-04T11:49:25.959Z,100199.97
2017-11-04T11:51:53.586Z,100189.49
2017-11-04T11:54:21.291Z,100176.19
2017-11-04T11:56:48.942Z,100166.99
2017-11-04T11:59:16.585Z,100159.44
2017-11-04T12:01:44.259Z,100166.30
2017-11-04T12:04:11.886Z,100163.81
2017-11-04T12:06:39.543Z,100165.87
2017-11-04T12:09:07.162Z,100169.08
2017-11-04T12:11:34.819Z,100165.30
2017-11-04T12:14:02.439Z,100155.48
2017-11-04T12:16:30.103Z,100159.55
2017-11-04T12:18:57.729Z,100159.67
2017-11-04T12:21:25.401Z,100154.56
2017-11-04T12:23:53.086Z,100150.32
2017-11-04T12:26:20.766Z,100142.28
2017-11-04T12:28:48.402Z,100144.81
2017-11-04T12:31:16.046Z,100136.90
2017-11-04T12:33:43.671Z,100136.97
2017-11-04T12:36:11.518Z,100142.28
2017-11-04T12:38:39.159Z,100139.67
2017-11-04T12:41:06.933Z,100132.47
2017-11-04T12:43:34.549Z,100119.72
2017-11-04T12:46:02.209Z,100116.64
2017-11-04T12:48:29.865Z,100114.44
2017-11-04T12:50:57.498Z,100106.56
2017-11-04T12:53:25.149Z,100099.11
2017-11-04T12:55:52.762Z,100098.88
2017-11-04T12:58:20.449Z,100097.03
2017-11-04T13:00:48.053Z,100091.59
2017-11-04T13:03:15.724Z,100089.80
2017-11-04T13:05:43.345Z,100090.30
2017-11-04T13:08:10.998Z,100082.34
2017-11-04T13:10:38.600Z,100076.55
2017-11-04T13:13:06.278Z,100079.33
2017-11-04T13:15:33.969Z,100078.30
2017-11-04T13:18:01.634Z,100082.23
2017-11-04T13:20:29.354Z,100074.36
2017-11-04T13:22:57.025Z,100078.31
2017-11-04T13:25:24.649Z,100078.88
2017-11-04T13:27:52.281Z,100067.45
2017-11-04T13:30:19.951Z,100070.58
2017-11-04T13:32:47.588Z,100067.05
2017-11-04T13:35:15.258Z,100069.61
2017-11-04T13:37:42.898Z,100069.88
2017-11-04T13:40:10.551Z,100062.95
2017-11-04T13:42:38.190Z,100054.45
2017-11-04T13:45:05.868Z,100055.98
2017-11-04T13:47:33.610Z,100060.58
2017-11-04T13:50:01.251Z,100054.93
2017-11-04T13:52:28.885Z,100046.88
2017-11-04T13:54:56.546Z,100050.95
2017-11-04T13:57:24.188Z,100043.55
2017-11-04T13:59:51.821Z,100050.16
2017-11-04T14:02:19.478Z,100045.31
2017-11-04T14:04:47.108Z,100039.83
2017-11-04T14:07:14.857Z,100052.86
2017-11-04T14:09:42.501Z,100039.66
2017-11-04T14:12:10.133Z,100037.58
2017-11-04T14:14:37.805Z,100035.19
2017-11-04T14:17:05.454Z,100035.20
2017-11-04T14:19:33.145Z,100032.48
2017-11-04T14:22:00.785Z,100035.61
2017-11-04T14:24:28.454Z,100045.11
2017-11-04T14:26:56.092Z,100030.77
2017-11-04T14:29:23.754Z,100028.77
2017-11-04T14:31:51.395Z,100029.91
2017-11-04T14:34:19.062Z,100025.27
2017-11-04T14:36:46.795Z,100027.56
2017-11-04T14:39:14.484Z,100029.01
2017-11-04T14:41:42.118Z,100032.66
2017-11-04T14:44:09.726Z,100034.78
2017-11-04T14:46:37.362Z,100020.18
2017-11-04T14:49:04.975Z,100033.89
2017-11-04T14:51:32.635Z,100040.98
2017-11-04T14:54:00.242Z,100039.61
2017-11-04T14:56:27.876Z,100045.66
2017-11-04T14:58:55.498Z,100041.30
2017-11-04T15:01:23.151Z,100041.77
2017-11-04T15:03:50.753Z,100035.33
2017-11-04T15:06:18.394Z,100043.02
2017-11-04T15:08:46.022Z,100034.32
2017-11-04T15:11:13.684Z,100024.66
2017-11-04T15:13:41.316Z,100024.84
2017-11-04T15:16:08.983Z,100026.20
2017-11-04T15:18:36.624Z,100022.15
2017-11-04T15:21:04.308Z,100023.28
2017-11-04T15:23:31.925Z,100020.11
2017-11-04T15:25:59.758Z,100019.95
2017-11-04T15:28:27.494Z,100012.30
2017-11-04T15:30:55.161Z,100016.44
2017-11-04T15:33:22.840Z,100025.53
2017-11-04T15:35:50.556Z,100026.54
2017-11-04T15:38:18.264Z,100013.92
2017-11-04T15:40:45.939Z,100012.32
2017-11-04T15:43:13.722Z,100005.26
2017-11-04T15:45:41.400Z,100004.84
2017-11-04T15:48:09.049Z,100002.05
2017-11-04T15:50:36.703Z,100006.67
2017-11-04T15:53:04.320Z,100007.30
2017-11-04T15:55:31.994Z,100001.37
2017-11-04T15:57:59.742Z,100013.77
2017-11-04T16:00:27.432Z,100016.87
2017-11-04T16:02:55.183Z,100017.09
2017-11-04T16:05:22.910Z,100015.84
2017-11-04T16:07:50.602Z,100017.50
2017-11-04T16:10:18.406Z,100020.41
2017-11-04T16:12:46.156Z,100019.09
2017-11-04T16:15:13.894Z,100017.07
2017-11-04T16:17:41.530Z,100012.73
2017-11-04T16:20:09.259Z,100014.72
2017-11-04T16:22:36.912Z,100000.98
2017-11-04T16:25:04.646Z,99993.14
2017-11-04T16:27:32.415Z,100000.14
2017-11-04T16:30:00.082Z,100000.02
2017-11-04T16:32:27.821Z,99994.35
2017-11-04T16:34:55.477Z,99995.55
2017-11-04T16:37:23.094Z,100000.06
2017-11-04T16:39:50.733Z,100003.86
2017-11-04T16:42:18.359Z,100008.62
2017-11-04T16:44:46.010Z,100014.02
2017-11-04T16:47:13.647Z,100006.55
2017-11-04T16:49:41.333Z,100005.30
2017-11-04T16:52:08.959Z,99997.42
2017-11-04T16:54:36.596Z,99999.13
2017-11-04T16:57:04.233Z,100001.77
2017-11-04T16:59:31.860Z,100009.45
2017-11-04T17:01:59.522Z,100007.48
2017-11-04T17:04:27.186Z,100014.53
2017-11-04T17:06:54.845Z,100008.76
2017-11-04T17:09:22.474Z,100010.11
2017-11-04T17:11:50.178Z,100012.50
2017-11-04T17:14:17.784Z,100012.19
2017-11-04T17:16:45.456Z,100026.30
2017-11-04T17:19:13.141Z,100026.71
2017-11-04T17:21:40.802Z,100026.27
2017-11-04T17:24:08.456Z,100030.48
2017-11-04T17:26:36.130Z,100016.73
2017-11-04T17:29:03.756Z,100019.14
2017-11-04T17:31:31.400Z,100020.48
2017-11-04T17:33:59.026Z,100023.95
2017-11-04T17:36:26.684Z,100018.35
2017-11-04T17:38:54.302Z,100015.09
2017-11-04T17:41:21.940Z,100012.23
2017-11-04T17:43:49.622Z,100013.27
2017-11-04T17:46:17.283Z,100005.91
2017-11-04T17:48:44.877Z,100007.50
2017-11-04T17:51:12.544Z,100019.48
2017-11-04T17:53:40.153Z,100010.52
2017-11-04T17:56:07.820Z,100010.93
2017-11-04T17:58:35.443Z,100007.45
2017-11-04T18:01:03.222Z,100007.98
2017-11-04T18:03:30.865Z,100011.80
2017-11-04T18:05:58.522Z,100018.92
2017-11-04T18:08:26.160Z,100016.79
2017-11-04T18:10:53.837Z,100022.03
2017-11-04T18:13:21.458Z,100014.88
2017-11-04T18:15:49.093Z,100023.16
2017-11-04T18:18:16.781Z,100018.09
2017-11-04T18:20:44.425Z,100010.91
2017-11-04T18:23:12.042Z,100009.78
2017-11-04T18:25:39.806Z,100010.98
2017-11-04T18:28:07.444Z,100021.08
2017-11-04T18:30:35.178Z,100024.66
2017-11-04T18:33:02.805Z,100021.80
2017-11-04T18:35:30.490Z,100022.83
2017-11-04T18:37:58.122Z,100015.84
2017-11-04T18:40:25.777Z,100015.59
2017-11-04T18:42:53.411Z,100018.03
2017-11-04T18:45:21.046Z,100019.31
2017-11-04T18:47:48.791Z,100019.12
2017-11-04T18:50:16.422Z,100021.41
2017-11-04T18:52:44.098Z,100024.20
2017-11-04T18:55:11.721Z,100020.31
2017-11-04T18:57:39.389Z,100016.20
2017-11-04T19:00:07.037Z,100012.48
2017-11-04T19:02:34.694Z,100016.30
2017-11-04T19:05:02.318Z,100015.89
2017-11-04T19:07:29.974Z,100014.30
2017-11-04T19:09:57.598Z,100022.95
2017-11-04T19:12:25.267Z,100025.69
2017-11-04T19:14:52.921Z,100029.65
2017-11-04T19:17:20.589Z,100022.75
2017-11-04T19:19:48.219Z,100021.08
2017-11-04T19:22:15.897Z,100029.58
2017-11-04T19:24:43.507Z,100020.67
2017-11-04T19:27:11.123Z,100021.71
2017-11-04T19:29:38.845Z,100018.33
2017-11-04T19:32:06.478Z,100018.33
2017-11-04T19:34:34.164Z,100018.42
2017-11-04T19:37:01.802Z,100019.52
2017-11-04T19:39:29.559Z,100019.20
2017-11-04T19:41:57.185Z,100019.11
2017-11-04T19:44:24.874Z,100023.05
2017-11-04T19:46:52.509Z,100020.71
2017-11-04T19:49:20.182Z,100023.97
2017-11-04T19:51:47.811Z,100023.56
2017-11-04T19:54:15.465Z,100027.36
2017-11-04T19:56:43.089Z,100031.97
2017-11-04T19:59:10.752Z,100033.33
2017-11-04T20:01:38.369Z,100036.02
2017-11-04T20:04:06.032Z,100033.54
2017-11-04T20:06:33.649Z,100034.16
2017-11-04T20:09:01.303Z,100037.27
2017-11-04T20:11:28.928Z,100039.81
2017-11-04T20:13:56.601Z,100043.86
2017-11-04T20:16:24.258Z,100041.56
2017-11-04T20:18:51.919Z,100042.20
2017-11-04T20:21:19.521Z,100034.41
2017-11-04T20:23:47.226Z,100042.25
2017-11-04T20:26:14.881Z,100035.25
2017-11-04T20:28:42.536Z,100043.28
2017-11-04T20:31:10.146Z,100043.44
2017-11-04T20:33:37.798Z,100037.37
2017-11-04T20:36:05.426Z,100049.77
2017-11-04T20:38:33.079Z,100041.33
2017-11-04T20:41:00.688Z,100043.87
2017-11-04T20:43:28.327Z,100041.17
2017-11-04T20:45:56.110Z,100041.23
2017-11-04T20:48:23.817Z,100045.05
2017-11-04T20:50:51.440Z,100043.45
2017-11-04T20:53:19.114Z,100042.56
2017-11-04T20:55:46.743Z,100039.77
2017-11-04T20:58:14.381Z,100041.43
2017-11-04T21:00:41.994Z,100049.52
2017-11-04T21:03:09.685Z,100047.56
2017-11-04T21:05:37.317Z,100042.05
2017-11-04T21:08:04.927Z,100044.03
2017-11-04T21:10:32.554Z,100039.83
2017-11-04T21:13:00.215Z,100037.03
2017-11-04T21:15:27.855Z,100037.54
2017-11-04T21:17:55.539Z,100035.00
2017-11-04T21:20:23.258Z,100040.60
2017-11-04T21:22:50.902Z,100043.14
2017-11-04T21:25:18.510Z,100042.89
2017-11-04T21:27:46.183Z,100034.64
2017-11-04T21:30:13.796Z,100033.66
2017-11-04T21:32:41.439Z,100038.42
2017-11-04T21:35:09.078Z,100043.25
2017-11-04T21:37:36.786Z,100036.05
2017-11-04T21:40:04.382Z,100041.95
2017-11-04T21:42:32.051Z,100039.25
2017-11-04T21:44:59.668Z,100033.45
2017-11-04T21:47:27.328Z,100032.51
2017-11-04T21:49:54.953Z,100031.31
2017-11-04T21:52:22.669Z,100026.87
2017-11-04T21:54:50.286Z,100019.66
2017-11-04T21:57:17.962Z,100025.78
2017-11-04T21:59:45.576Z,100022.30
2017-11-04T22:02:13.235Z,100033.19
2017-11-04T22:04:40.847Z,100031.73
2017-11-04T22:07:08.555Z,100033.95
2017-11-04T22:09:36.172Z,100024.17
2017-11-04T22:12:03.850Z,100024.53
2017-11-04T22:14:31.488Z,100025.53
2017-11-04T22:16:59.291Z,100029.83
2017-11-04T22:19:26.924Z,100024.02
2017-11-04T22:21:54.587Z,100025.25
2017-11-04T22:24:22.223Z,100030.03
2017-11-04T22:26:49.929Z,100024.48
2017-11-04T22:29:17.555Z,100026.41
2017-11-04T22:31:45.189Z,100024.23
2017-11-04T22:34:12.849Z,100024.48
2017-11-04T22:36:40.496Z,100033.83
2017-11-04T22:39:08.119Z,100026.81
2017-11-04T22:41:35.890Z,100020.85
2017-11-04T22:44:03.504Z,100020.02
2017-11-04T22:46:31.131Z,100019.30
2017-11-04T22:48:58.786Z,100013.44
2017-11-04T22:51:26.414Z,100010.89
2017-11-04T22:53:54.072Z,100013.80
2017-11-04T22:56:21.685Z,100014.23
2017-11-04T22:58:49.330Z,100015.05
2017-11-04T23:01:16.955Z,100022.22
2017-11-04T23:03:44.597Z,100019.33
2017-11-04T23:06:12.230Z,100019.89
2017-11-04T23:08:39.877Z,100019.07
2017-11-04T23:11:07.523Z,100025.33
2017-11-04T23:13:35.197Z,100020.47
2017-11-04T23:16:02.826Z,100019.43
2017-11-04T23:18:30.486Z,100015.85
2017-11-04T23:20:58.126Z,100012.84
2017-11-04T23:23:25.797Z,100000.45
2017-11-04T23:25:53.386Z,100000.30
2017-11-04T23:28:21.006Z,99998.32
2017-11-04T23:30:48.588Z,99989.73
2017-11-04T23:33:16.223Z,99988.59
2017-11-04T23:35:43.899Z,99993.09
2017-11-04T23:38:11.522Z,99992.05
2017-11-04T23:40:39.131Z,99992.72
2017-11-04T23:43:06.767Z,99985.67
2017-11-04T23:45:34.366Z,99986.86
2017-11-04T23:48:01.979Z,99982.45
2017-11-04T23:50:29.535Z,99985.36
2017-11-04T23:52:57.160Z,99981.48
2017-11-04T23:55:24.771Z,99982.50
2017-11-04T23:57:52.378Z,99982.19
